Dannelly, Alabama
Current Conditions -  °F | °C
As of 12:58 AM on Saturday 29 Nov 2014 (Local Time) from KMXF Reporting Station
Clear Clear  
Wind Chill: 33°   Ceiling: Unl
Heat Index: 33°   Visibility: 10mi
Dew Point: 31°   Wind: 0mph
Humidity: 92%   Direction: NA
Pressure: 30.26"   Gusts: NA
Location:  32.3488°N, 86.4016°W
Report Text: KMXF 290658Z AUTO 00000KT 10SM CLR 01/M01 A3026 RMK AO2 SLP251 T00051007
Loading
Personal Weather Stations






























Interactive Weather Map New forecast layout! Learn more

10-Day Weather Forecast

Advertisements
Track Severe Weather on mobile